Time;durP1;ratioP1;P1;durP2;ratioP2;P2;SDS_P1;SDS_P2;PMS_P1;PMS_P2;Temp;Humidity;BMP_temperature;BMP_pressure;BME280_temperature;BME280_humidity;BME280_pressure;Samples;Min_cycle;Max_cycle;Signal;HPM_P1;HPM_P2
2023/05/23 00:01:13;;;;;;;26.07;19.60;;;;;;;;;;5067999;28;20222;-76
2023/05/23 00:03:39;;;;;;;26.30;21.07;;;;;;;;;;5082995;28;20255;-77
2023/05/23 00:06:05;;;;;;;23.27;18.37;;;;;;;;;;5089503;28;20228;-77
2023/05/23 00:08:30;;;;;;;23.73;19.60;;;;;;;;;;5068229;28;20179;-77
2023/05/23 00:10:55;;;;;;;28.07;20.13;;;;;;;;;;5086780;28;20204;-77
2023/05/23 00:13:20;;;;;;;26.97;19.10;;;;;;;;;;5071161;28;20180;-77
2023/05/23 00:15:47;;;;;;;28.90;20.97;;;;;;;;;;5071682;28;20173;-77
2023/05/23 00:18:12;;;;;;;26.93;20.23;;;;;;;;;;5088411;28;20204;-77
2023/05/23 00:20:41;;;;;;;31.50;21.57;;;;;;;;;;5071156;28;20184;-77
2023/05/23 00:23:08;;;;;;;41.23;28.00;;;;;;;;;;5071791;28;20181;-77
2023/05/23 00:25:34;;;;;;;35.07;25.03;;;;;;;;;;5071627;28;20204;-77
2023/05/23 00:27:59;;;;;;;39.43;27.60;;;;;;;;;;5075952;28;20183;-77
2023/05/23 00:30:25;;;;;;;37.07;27.03;;;;;;;;;;5069885;28;20178;-77
2023/05/23 00:32:53;;;;;;;46.93;34.63;;;;;;;;;;5092353;28;20176;-77
2023/05/23 00:35:19;;;;;;;50.30;36.73;;;;;;;;;;5090833;28;20174;-76
2023/05/23 00:37:44;;;;;;;48.43;33.57;;;;;;;;;;5090228;28;20252;-77
2023/05/23 00:40:09;;;;;;;54.67;40.63;;;;;;;;;;5088702;28;20174;-77
2023/05/23 00:42:35;;;;;;;53.43;35.50;;;;;;;;;;5075228;28;20359;-77
2023/05/23 00:45:00;;;;;;;48.17;34.63;;;;;;;;;;5098097;28;20174;-75
2023/05/23 00:47:25;;;;;;;49.07;34.87;;;;;;;;;;5077302;28;20196;-75
2023/05/23 00:49:50;;;;;;;51.23;34.53;;;;;;;;;;5074522;28;20173;-75
2023/05/23 00:52:16;;;;;;;50.73;36.47;;;;;;;;;;5076885;28;20170;-75
2023/05/23 00:54:41;;;;;;;56.17;34.10;;;;;;;;;;5092998;28;20192;-75
2023/05/23 00:57:06;;;;;;;54.37;38.07;;;;;;;;;;5073371;28;20177;-75
2023/05/23 00:59:32;;;;;;;55.77;36.43;;;;;;;;;;5092012;28;20238;-75
2023/05/23 01:01:59;;;;;;;48.70;32.60;;;;;;;;;;5070507;28;20180;-76
2023/05/23 01:04:25;;;;;;;52.87;36.93;;;;;;;;;;5091748;28;20169;-76
2023/05/23 01:06:51;;;;;;;49.27;34.27;;;;;;;;;;5092200;28;20206;-75
2023/05/23 01:09:17;;;;;;;59.10;37.03;;;;;;;;;;5091438;28;20253;-75
2023/05/23 01:11:46;;;;;;;53.60;34.77;;;;;;;;;;5091280;28;20306;-75
2023/05/23 01:14:13;;;;;;;52.87;32.30;;;;;;;;;;5071265;28;20173;-75
2023/05/23 01:16:59;;;;;;;51.97;33.80;;;;;;;;;;5092952;28;20224;-75
2023/05/23 01:19:28;;;;;;;57.20;41.67;;;;;;;;;;5064624;28;20264;-75
2023/05/23 01:21:54;;;;;;;55.83;40.50;;;;;;;;;;5093992;28;20306;-75
2023/05/23 01:24:19;;;;;;;55.47;37.83;;;;;;;;;;5087565;28;20226;-75
2023/05/23 01:26:59;;;;;;;53.17;36.27;;;;;;;;;;5074039;28;20282;-75
2023/05/23 01:29:27;;;;;;;55.73;38.37;;;;;;;;;;5068735;28;20176;-75
2023/05/23 01:31:53;;;;;;;52.47;37.17;;;;;;;;;;5091668;28;20310;-75
2023/05/23 01:34:20;;;;;;;51.27;36.67;;;;;;;;;;5072890;28;20180;-76
2023/05/23 01:36:48;;;;;;;51.83;35.40;;;;;;;;;;5091356;28;20181;-75
2023/05/23 01:39:13;;;;;;;56.00;37.97;;;;;;;;;;5070398;28;20198;-75
2023/05/23 01:41:38;;;;;;;55.53;39.57;;;;;;;;;;5052592;28;20250;-76
2023/05/23 01:44:04;;;;;;;55.33;38.77;;;;;;;;;;5066355;28;20173;-76
2023/05/23 01:46:30;;;;;;;52.97;39.37;;;;;;;;;;5067420;28;20232;-75
2023/05/23 01:48:55;;;;;;;55.83;40.07;;;;;;;;;;5070085;28;20181;-75
2023/05/23 01:51:21;;;;;;;63.97;43.57;;;;;;;;;;5053599;28;20175;-76
2023/05/23 01:53:48;;;;;;;54.30;38.70;;;;;;;;;;5071754;28;20204;-75
2023/05/23 01:56:13;;;;;;;54.67;37.83;;;;;;;;;;5051006;28;20197;-75
2023/05/23 01:58:39;;;;;;;54.83;39.20;;;;;;;;;;5053720;28;20174;-75
2023/05/23 02:01:04;;;;;;;57.13;36.30;;;;;;;;;;5050192;28;20459;-76
2023/05/23 02:03:29;;;;;;;51.07;36.57;;;;;;;;;;5069633;28;20258;-75
2023/05/23 02:05:54;;;;;;;56.33;39.10;;;;;;;;;;5069903;28;20200;-75
2023/05/23 02:08:22;;;;;;;53.87;38.53;;;;;;;;;;5069687;28;20173;-75
2023/05/23 02:10:48;;;;;;;52.20;37.43;;;;;;;;;;5053480;28;20185;-75
2023/05/23 02:13:13;;;;;;;55.53;40.53;;;;;;;;;;5070038;28;20188;-75
2023/05/23 02:15:38;;;;;;;59.77;42.80;;;;;;;;;;5071093;28;20234;-75
2023/05/23 02:18:05;;;;;;;49.90;38.67;;;;;;;;;;5068075;28;20177;-75
2023/05/23 02:20:30;;;;;;;53.30;38.37;;;;;;;;;;5070878;28;20257;-75
2023/05/23 02:22:55;;;;;;;54.17;42.40;;;;;;;;;;5052202;28;20334;-75
2023/05/23 02:25:21;;;;;;;56.60;38.20;;;;;;;;;;5070334;28;20184;-75
2023/05/23 02:27:46;;;;;;;55.23;38.90;;;;;;;;;;5070483;28;20276;-75
2023/05/23 02:30:11;;;;;;;58.90;41.30;;;;;;;;;;5074491;28;20165;-76
2023/05/23 02:32:36;;;;;;;53.90;38.27;;;;;;;;;;5070653;28;20177;-75
2023/05/23 02:35:02;;;;;;;57.77;43.17;;;;;;;;;;5063581;28;20173;-75
2023/05/23 02:37:27;;;;;;;58.07;37.83;;;;;;;;;;5056565;28;20231;-75
2023/05/23 02:39:53;;;;;;;53.60;37.10;;;;;;;;;;5075994;28;20177;-75
2023/05/23 02:42:18;;;;;;;49.87;34.37;;;;;;;;;;5090618;28;20183;-75
2023/05/23 02:44:43;;;;;;;49.13;35.70;;;;;;;;;;5091159;28;20176;-75
2023/05/23 02:47:09;;;;;;;54.43;40.43;;;;;;;;;;5072759;28;20224;-75
2023/05/23 02:49:34;;;;;;;53.00;39.37;;;;;;;;;;5072825;28;20210;-75
2023/05/23 02:52:00;;;;;;;54.37;38.23;;;;;;;;;;5087204;28;20276;-75
2023/05/23 02:54:25;;;;;;;46.30;37.23;;;;;;;;;;5070675;28;20173;-75
2023/05/23 02:56:52;;;;;;;49.23;36.57;;;;;;;;;;5090431;28;20176;-75
2023/05/23 02:59:17;;;;;;;51.80;36.07;;;;;;;;;;5071423;28;20180;-76
2023/05/23 03:01:42;;;;;;;54.20;38.57;;;;;;;;;;5089821;28;20177;-75
2023/05/23 03:04:08;;;;;;;51.07;36.87;;;;;;;;;;5072001;28;20268;-76
2023/05/23 03:06:35;;;;;;;46.03;35.10;;;;;;;;;;5073149;28;20200;-75
2023/05/23 03:09:00;;;;;;;52.53;36.77;;;;;;;;;;5066218;28;20246;-76
2023/05/23 03:11:25;;;;;;;48.53;33.80;;;;;;;;;;5076302;28;20173;-75
2023/05/23 03:13:51;;;;;;;46.83;35.53;;;;;;;;;;5089271;28;20176;-76
2023/05/23 03:16:16;;;;;;;48.50;36.03;;;;;;;;;;5089406;28;20176;-75
2023/05/23 03:18:41;;;;;;;41.17;32.73;;;;;;;;;;5072933;28;20236;-76
2023/05/23 03:21:07;;;;;;;44.67;35.47;;;;;;;;;;5069958;28;20239;-75
2023/05/23 03:23:32;;;;;;;44.97;35.03;;;;;;;;;;5089289;28;20178;-75
2023/05/23 03:25:58;;;;;;;50.57;37.33;;;;;;;;;;5066223;28;20212;-75
2023/05/23 03:28:23;;;;;;;47.77;37.17;;;;;;;;;;5072946;28;20230;-76
2023/05/23 03:30:49;;;;;;;50.87;37.70;;;;;;;;;;5071673;28;20219;-75
2023/05/23 03:33:14;;;;;;;51.00;36.30;;;;;;;;;;5088322;28;20175;-75
2023/05/23 03:35:40;;;;;;;44.00;33.57;;;;;;;;;;5068275;28;20190;-76
2023/05/23 03:38:06;;;;;;;41.97;34.77;;;;;;;;;;5074027;28;20219;-75
2023/05/23 03:40:31;;;;;;;48.53;34.00;;;;;;;;;;5089437;28;20176;-75
2023/05/23 03:43:04;;;;;;;46.43;35.70;;;;;;;;;;5071658;28;20272;-76
2023/05/23 03:45:29;;;;;;;48.03;37.03;;;;;;;;;;5072350;28;20208;-75
2023/05/23 03:47:54;;;;;;;48.13;35.13;;;;;;;;;;5067005;28;20198;-75
2023/05/23 03:50:20;;;;;;;42.43;33.17;;;;;;;;;;5074640;28;20176;-75
2023/05/23 03:52:45;;;;;;;44.63;35.07;;;;;;;;;;5090764;28;20169;-75
2023/05/23 03:55:10;;;;;;;42.50;34.47;;;;;;;;;;5071057;28;20199;-75
2023/05/23 03:57:36;;;;;;;49.30;36.87;;;;;;;;;;5073007;28;20199;-75
2023/05/23 04:00:04;;;;;;;49.80;41.87;;;;;;;;;;5068565;28;20180;-75
2023/05/23 04:02:30;;;;;;;44.37;34.43;;;;;;;;;;5065597;28;20225;-75
2023/05/23 04:04:55;;;;;;;52.87;46.30;;;;;;;;;;5073714;28;20211;-75
2023/05/23 04:07:21;;;;;;;44.70;34.93;;;;;;;;;;5093944;28;20264;-75
2023/05/23 04:09:46;;;;;;;46.63;37.77;;;;;;;;;;5075125;28;20180;-75
2023/05/23 04:12:12;;;;;;;43.87;34.57;;;;;;;;;;5073960;28;20206;-75
2023/05/23 04:14:38;;;;;;;46.13;37.37;;;;;;;;;;5076129;28;20180;-76
2023/05/23 04:17:03;;;;;;;45.43;35.73;;;;;;;;;;5068182;28;20184;-75
2023/05/23 04:19:28;;;;;;;45.70;34.67;;;;;;;;;;5076011;28;20176;-75
2023/05/23 04:21:53;;;;;;;44.97;34.77;;;;;;;;;;5069526;28;20184;-75
2023/05/23 04:24:19;;;;;;;46.33;38.80;;;;;;;;;;5073018;28;20184;-75
2023/05/23 04:26:44;;;;;;;46.70;35.70;;;;;;;;;;5093763;28;20244;-75
2023/05/23 04:29:11;;;;;;;49.87;38.73;;;;;;;;;;5076086;28;20191;-76
2023/05/23 04:31:36;;;;;;;48.63;41.33;;;;;;;;;;5090376;28;20176;-75
2023/05/23 04:34:02;;;;;;;54.77;43.77;;;;;;;;;;5072165;28;20229;-75
2023/05/23 04:36:29;;;;;;;55.07;41.67;;;;;;;;;;5071169;28;20188;-75
2023/05/23 04:38:54;;;;;;;45.77;36.00;;;;;;;;;;5096734;28;20232;-75
2023/05/23 04:41:22;;;;;;;50.13;39.57;;;;;;;;;;5090777;28;20221;-76
2023/05/23 04:43:47;;;;;;;48.23;37.67;;;;;;;;;;5091629;28;20229;-75
2023/05/23 04:46:12;;;;;;;61.07;48.20;;;;;;;;;;5068143;28;20204;-75
2023/05/23 04:48:38;;;;;;;48.30;41.07;;;;;;;;;;5065676;28;20179;-76
2023/05/23 04:51:10;;;;;;;48.60;41.83;;;;;;;;;;5088106;28;20182;-76
2023/05/23 04:53:35;;;;;;;46.90;36.87;;;;;;;;;;5086408;28;20183;-75
2023/05/23 04:56:01;;;;;;;47.07;37.53;;;;;;;;;;5092118;28;20184;-75
2023/05/23 04:58:26;;;;;;;49.80;38.50;;;;;;;;;;5099816;28;20180;-76
2023/05/23 05:00:51;;;;;;;50.80;40.63;;;;;;;;;;5064304;28;20184;-76
2023/05/23 05:03:17;;;;;;;44.53;37.83;;;;;;;;;;5092044;28;20203;-75
2023/05/23 05:05:42;;;;;;;45.77;38.67;;;;;;;;;;5072769;28;20207;-75
2023/05/23 05:08:07;;;;;;;52.43;40.70;;;;;;;;;;5090791;28;20179;-75
2023/05/23 05:10:33;;;;;;;43.63;38.07;;;;;;;;;;5071287;28;20172;-75
2023/05/23 05:12:58;;;;;;;45.37;35.67;;;;;;;;;;5089209;28;20179;-76
2023/05/23 05:15:23;;;;;;;40.90;35.77;;;;;;;;;;5089300;28;20230;-75
2023/05/23 05:17:49;;;;;;;44.73;35.43;;;;;;;;;;5089346;28;20173;-78
2023/05/23 05:20:15;;;;;;;46.47;35.27;;;;;;;;;;5072530;28;20233;-79
2023/05/23 05:22:41;;;;;;;44.60;37.97;;;;;;;;;;5091098;28;20172;-74
2023/05/23 05:25:07;;;;;;;46.43;36.73;;;;;;;;;;5085291;28;20182;-74
2023/05/23 05:27:32;;;;;;;45.33;36.73;;;;;;;;;;5072577;28;20210;-74
2023/05/23 05:30:03;;;;;;;41.40;30.60;;;;;;;;;;5068034;28;20184;-74
2023/05/23 05:32:30;;;;;;;38.93;33.73;;;;;;;;;;5074706;28;20175;-74
2023/05/23 05:34:55;;;;;;;47.37;38.77;;;;;;;;;;5074908;28;20172;-74
2023/05/23 05:37:21;;;;;;;43.03;37.20;;;;;;;;;;5074507;28;20214;-74
2023/05/23 05:39:46;;;;;;;38.70;30.80;;;;;;;;;;5083927;28;20177;-74
2023/05/23 05:42:11;;;;;;;41.10;36.17;;;;;;;;;;5073443;28;20213;-74
2023/05/23 05:44:36;;;;;;;44.17;36.77;;;;;;;;;;5074894;28;20183;-74
2023/05/23 05:47:02;;;;;;;40.77;34.80;;;;;;;;;;5073924;28;20213;-74
2023/05/23 05:49:27;;;;;;;44.30;35.67;;;;;;;;;;5074227;28;20183;-74
2023/05/23 05:51:52;;;;;;;38.87;34.20;;;;;;;;;;5090719;28;20257;-74
2023/05/23 05:54:17;;;;;;;37.97;32.93;;;;;;;;;;5074054;28;20176;-74
2023/05/23 05:56:42;;;;;;;39.57;33.63;;;;;;;;;;5092170;28;20189;-74
2023/05/23 05:59:08;;;;;;;38.37;34.03;;;;;;;;;;5084374;28;20214;-74
2023/05/23 06:01:33;;;;;;;42.53;36.53;;;;;;;;;;5088996;28;20177;-74
2023/05/23 06:03:59;;;;;;;36.47;30.57;;;;;;;;;;5073371;28;20249;-74
2023/05/23 06:06:24;;;;;;;39.07;33.23;;;;;;;;;;5066290;28;20228;-74
2023/05/23 06:08:49;;;;;;;38.60;34.40;;;;;;;;;;5071319;28;20191;-74
2023/05/23 06:11:15;;;;;;;40.87;33.83;;;;;;;;;;5069483;28;20193;-74
2023/05/23 06:13:40;;;;;;;39.93;32.40;;;;;;;;;;5091625;28;20164;-74
2023/05/23 06:16:06;;;;;;;38.13;30.90;;;;;;;;;;5081495;28;20206;-74
2023/05/23 06:18:31;;;;;;;41.33;34.27;;;;;;;;;;5073249;28;20183;-74
2023/05/23 06:20:56;;;;;;;37.17;28.67;;;;;;;;;;5090496;28;20188;-74
2023/05/23 06:23:21;;;;;;;38.73;32.73;;;;;;;;;;5074016;28;20176;-74
2023/05/23 06:25:46;;;;;;;35.40;30.23;;;;;;;;;;5071208;28;20206;-74
2023/05/23 06:28:12;;;;;;;38.40;34.23;;;;;;;;;;5070965;28;20260;-74
2023/05/23 06:30:37;;;;;;;249.07;57.53;;;;;;;;;;5071644;28;20172;-74
2023/05/23 06:33:02;;;;;;;357.07;82.97;;;;;;;;;;5084577;28;20168;-74
2023/05/23 06:35:28;;;;;;;157.43;46.63;;;;;;;;;;5072876;28;20184;-74
2023/05/23 06:37:53;;;;;;;109.60;37.17;;;;;;;;;;5073476;28;20230;-74
2023/05/23 06:40:18;;;;;;;235.87;58.27;;;;;;;;;;5072995;28;20176;-74
2023/05/23 06:42:43;;;;;;;97.80;36.77;;;;;;;;;;5072824;28;20186;-74
2023/05/23 06:45:09;;;;;;;126.00;39.13;;;;;;;;;;5071517;28;20178;-74
2023/05/23 06:47:34;;;;;;;54.07;31.53;;;;;;;;;;5073202;28;20199;-74
2023/05/23 06:49:59;;;;;;;41.00;33.10;;;;;;;;;;5070598;28;20190;-74
2023/05/23 06:52:25;;;;;;;36.50;29.80;;;;;;;;;;5070970;28;20187;-74
2023/05/23 06:54:50;;;;;;;31.57;27.90;;;;;;;;;;5091053;28;20167;-74
2023/05/23 06:57:15;;;;;;;35.03;28.97;;;;;;;;;;5091162;28;20174;-74
2023/05/23 06:59:40;;;;;;;33.00;27.30;;;;;;;;;;5066616;28;20191;-74
2023/05/23 07:02:06;;;;;;;34.30;26.47;;;;;;;;;;5089082;28;20178;-74
2023/05/23 07:04:31;;;;;;;32.07;26.93;;;;;;;;;;5089346;28;20224;-74
2023/05/23 07:06:56;;;;;;;29.03;25.60;;;;;;;;;;5072751;28;20201;-75
2023/05/23 07:09:21;;;;;;;33.63;25.00;;;;;;;;;;5071618;28;20176;-75
2023/05/23 07:11:46;;;;;;;29.67;25.63;;;;;;;;;;5090468;28;20178;-74
2023/05/23 07:14:11;;;;;;;31.83;26.40;;;;;;;;;;5089977;28;20181;-74
2023/05/23 07:16:37;;;;;;;30.23;24.07;;;;;;;;;;5072485;28;20226;-74
2023/05/23 07:19:03;;;;;;;28.73;25.40;;;;;;;;;;5080690;28;20209;-75
2023/05/23 07:21:29;;;;;;;28.23;24.67;;;;;;;;;;5086615;28;20186;-74
2023/05/23 07:23:55;;;;;;;29.27;26.13;;;;;;;;;;5067959;28;20183;-74
2023/05/23 07:26:20;;;;;;;27.27;23.37;;;;;;;;;;5093876;28;20202;-74
2023/05/23 07:28:45;;;;;;;26.93;24.00;;;;;;;;;;5066936;28;20180;-74
2023/05/23 07:31:10;;;;;;;22.70;19.73;;;;;;;;;;5089287;28;20213;-74
2023/05/23 07:33:36;;;;;;;25.13;22.03;;;;;;;;;;5087421;28;20182;-74
2023/05/23 07:36:01;;;;;;;24.73;22.03;;;;;;;;;;5087199;28;20291;-74
2023/05/23 07:38:26;;;;;;;23.27;20.77;;;;;;;;;;5071975;28;20230;-74
2023/05/23 07:40:51;;;;;;;22.23;19.90;;;;;;;;;;5071715;28;20269;-74
2023/05/23 07:43:16;;;;;;;22.43;19.13;;;;;;;;;;5072580;28;20179;-74
2023/05/23 07:45:41;;;;;;;21.47;18.13;;;;;;;;;;5087983;28;20241;-74
2023/05/23 07:48:07;;;;;;;20.80;18.17;;;;;;;;;;5074702;28;20174;-74
2023/05/23 07:50:33;;;;;;;20.73;16.70;;;;;;;;;;5092643;28;20236;-74
2023/05/23 07:52:58;;;;;;;22.20;19.57;;;;;;;;;;5088763;28;20187;-74
2023/05/23 07:55:23;;;;;;;23.70;19.90;;;;;;;;;;5073215;28;20271;-74
2023/05/23 07:57:48;;;;;;;22.70;20.20;;;;;;;;;;5070145;28;20183;-74
2023/05/23 08:00:14;;;;;;;23.63;19.97;;;;;;;;;;5083713;28;20182;-74
2023/05/23 08:02:39;;;;;;;24.47;19.33;;;;;;;;;;5092550;28;20200;-74
2023/05/23 08:05:05;;;;;;;26.10;20.80;;;;;;;;;;5076089;28;20186;-74
2023/05/23 08:07:31;;;;;;;21.37;18.93;;;;;;;;;;5074565;28;20293;-74
2023/05/23 08:09:56;;;;;;;23.30;18.13;;;;;;;;;;5090350;28;20186;-74
2023/05/23 08:12:21;;;;;;;22.57;19.47;;;;;;;;;;5091063;28;20175;-74
2023/05/23 08:14:46;;;;;;;19.67;16.47;;;;;;;;;;5071180;28;20212;-74
2023/05/23 08:17:12;;;;;;;20.00;16.87;;;;;;;;;;5075815;28;20199;-74
2023/05/23 08:19:37;;;;;;;20.77;16.17;;;;;;;;;;5094449;28;20182;-74
2023/05/23 08:22:03;;;;;;;21.60;17.77;;;;;;;;;;5076222;28;20175;-74
2023/05/23 08:24:29;;;;;;;21.43;18.87;;;;;;;;;;5091766;28;20216;-74
2023/05/23 08:26:54;;;;;;;22.17;19.77;;;;;;;;;;5093064;28;20218;-74
2023/05/23 08:29:20;;;;;;;92.77;29.10;;;;;;;;;;5093059;28;20223;-74
2023/05/23 08:31:45;;;;;;;127.40;29.30;;;;;;;;;;5072291;28;20178;-74
2023/05/23 08:34:11;;;;;;;67.63;22.50;;;;;;;;;;5094347;28;20171;-74
2023/05/23 08:36:38;;;;;;;107.90;32.13;;;;;;;;;;5075608;28;20175;-74
2023/05/23 08:39:03;;;;;;;228.07;43.60;;;;;;;;;;5074301;28;20228;-74
2023/05/23 08:41:29;;;;;;;74.93;26.60;;;;;;;;;;5093590;28;20179;-74
2023/05/23 08:43:54;;;;;;;47.23;21.97;;;;;;;;;;5093196;28;20176;-74
2023/05/23 08:46:21;;;;;;;45.27;21.87;;;;;;;;;;5093584;28;20192;-73
2023/05/23 08:48:49;;;;;;;140.23;31.83;;;;;;;;;;5092714;28;20202;-74
2023/05/23 08:51:16;;;;;;;219.33;40.07;;;;;;;;;;5074356;28;20199;-74
2023/05/23 08:53:45;;;;;;;84.50;24.90;;;;;;;;;;5075659;28;20170;-74
2023/05/23 08:56:11;;;;;;;209.53;40.23;;;;;;;;;;5072368;28;20227;-74
2023/05/23 08:58:37;;;;;;;35.97;17.10;;;;;;;;;;5066366;28;20207;-74
2023/05/23 09:01:02;;;;;;;31.27;21.53;;;;;;;;;;5092748;28;20180;-76
2023/05/23 09:03:28;;;;;;;66.33;24.30;;;;;;;;;;5090818;28;20203;-76
2023/05/23 09:05:54;;;;;;;96.57;26.03;;;;;;;;;;5068849;28;20202;-74
2023/05/23 09:08:19;;;;;;;211.13;44.10;;;;;;;;;;5074148;28;20210;-74
2023/05/23 09:10:45;;;;;;;23.67;17.53;;;;;;;;;;5073124;28;20176;-74
2023/05/23 09:13:10;;;;;;;20.77;14.20;;;;;;;;;;5089496;28;20179;-74
2023/05/23 09:15:36;;;;;;;18.93;16.93;;;;;;;;;;5073982;28;20194;-74
2023/05/23 09:18:02;;;;;;;20.73;16.97;;;;;;;;;;5073583;28;20175;-74
2023/05/23 09:20:27;;;;;;;13.60;9.43;;;;;;;;;;5069697;28;20176;-74
2023/05/23 09:22:53;;;;;;;17.60;15.30;;;;;;;;;;5090299;28;20203;-79
2023/05/23 09:25:19;;;;;;;19.90;14.87;;;;;;;;;;5073800;28;20198;-74
2023/05/23 09:27:44;;;;;;;18.77;14.97;;;;;;;;;;5092372;28;20235;-74
2023/05/23 09:30:10;;;;;;;17.90;14.97;;;;;;;;;;5073766;28;20208;-74
2023/05/23 09:32:35;;;;;;;18.30;14.90;;;;;;;;;;5068820;28;20202;-74
2023/05/23 09:35:03;;;;;;;18.87;14.37;;;;;;;;;;5090811;28;20186;-74
2023/05/23 09:37:30;;;;;;;14.83;13.30;;;;;;;;;;5092668;28;20279;-74
2023/05/23 09:39:55;;;;;;;17.13;12.53;;;;;;;;;;5067635;28;20186;-74
2023/05/23 09:42:23;;;;;;;16.97;14.00;;;;;;;;;;5074698;28;20179;-74
2023/05/23 09:44:49;;;;;;;16.93;15.20;;;;;;;;;;5092344;28;20227;-74
2023/05/23 09:47:15;;;;;;;14.63;12.03;;;;;;;;;;5074576;28;20199;-74
2023/05/23 09:49:42;;;;;;;31.87;15.90;;;;;;;;;;5069886;28;20176;-74
2023/05/23 09:52:07;;;;;;;16.50;11.43;;;;;;;;;;5067296;28;20262;-74
2023/05/23 09:54:33;;;;;;;20.80;16.37;;;;;;;;;;5071196;28;20267;-73
2023/05/23 09:57:00;;;;;;;18.60;16.53;;;;;;;;;;5061613;28;20298;-74
2023/05/23 09:59:27;;;;;;;16.80;13.67;;;;;;;;;;5074699;28;20177;-75
2023/05/23 10:01:53;;;;;;;15.53;13.03;;;;;;;;;;5068570;28;20203;-74
2023/05/23 10:04:22;;;;;;;16.90;14.00;;;;;;;;;;5092215;28;20180;-74
2023/05/23 10:06:53;;;;;;;15.37;13.47;;;;;;;;;;5092201;28;20240;-76
2023/05/23 10:09:20;;;;;;;16.77;15.00;;;;;;;;;;5074773;28;20171;-74
2023/05/23 10:12:04;;;;;;;15.90;13.50;;;;;;;;;;5074377;28;20172;-74
2023/05/23 10:14:31;;;;;;;24.27;14.50;;;;;;;;;;5070839;28;20179;-74
2023/05/23 10:17:05;;;;;;;17.87;14.17;;;;;;;;;;5071239;28;20185;-74
2023/05/23 10:19:46;;;;;;;14.70;11.40;;;;;;;;;;5073319;28;20177;-75
2023/05/23 10:22:13;;;;;;;24.27;14.83;;;;;;;;;;5072996;28;20211;-74
2023/05/23 10:24:38;;;;;;;14.53;12.03;;;;;;;;;;5072882;28;20177;-74
2023/05/23 10:27:05;;;;;;;13.77;12.40;;;;;;;;;;5073161;28;20312;-74
2023/05/23 10:29:32;;;;;;;12.57;9.03;;;;;;;;;;5073347;28;20176;-74
2023/05/23 10:31:58;;;;;;;14.80;12.90;;;;;;;;;;5090620;28;20175;-74
2023/05/23 10:34:30;;;;;;;14.43;13.03;;;;;;;;;;5089718;28;20180;-74
2023/05/23 10:37:00;;;;;;;13.80;12.03;;;;;;;;;;5073105;28;20175;-74
2023/05/23 10:39:45;;;;;;;16.00;13.53;;;;;;;;;;5073462;28;20234;-74
2023/05/23 10:42:12;;;;;;;14.70;12.17;;;;;;;;;;5084317;28;20205;-74
2023/05/23 10:44:37;;;;;;;12.47;11.20;;;;;;;;;;5072469;28;20271;-74
2023/05/23 10:47:03;;;;;;;16.30;12.23;;;;;;;;;;5071605;28;20299;-74
2023/05/23 10:49:42;;;;;;;15.83;12.10;;;;;;;;;;5068358;28;20314;-74
2023/05/23 10:52:08;;;;;;;13.33;12.03;;;;;;;;;;5083615;28;20236;-74
2023/05/23 10:54:44;;;;;;;12.30;9.63;;;;;;;;;;5083149;28;20252;-74
2023/05/23 10:57:10;;;;;;;8.50;7.53;;;;;;;;;;5067022;28;20195;-74
2023/05/23 10:59:37;;;;;;;12.03;10.73;;;;;;;;;;5091091;28;20236;-74
2023/05/23 11:02:02;;;;;;;13.63;11.17;;;;;;;;;;5087232;28;20203;-74
2023/05/23 11:04:28;;;;;;;12.07;10.87;;;;;;;;;;5072012;28;20275;-75
2023/05/23 11:06:54;;;;;;;11.40;10.40;;;;;;;;;;5065240;28;20325;-74
2023/05/23 11:09:20;;;;;;;10.23;9.23;;;;;;;;;;5073152;28;20259;-74
2023/05/23 11:11:46;;;;;;;8.70;7.77;;;;;;;;;;5072521;28;20226;-74
2023/05/23 11:14:11;;;;;;;10.90;9.80;;;;;;;;;;5071858;28;20267;-74
2023/05/23 11:16:40;;;;;;;13.57;8.80;;;;;;;;;;5073348;28;20179;-74
2023/05/23 11:19:17;;;;;;;20.93;11.77;;;;;;;;;;5073454;28;20254;-74
2023/05/23 11:21:43;;;;;;;10.97;9.97;;;;;;;;;;5071378;28;20175;-74
2023/05/23 11:24:09;;;;;;;9.83;8.63;;;;;;;;;;5069907;28;20176;-74
2023/05/23 11:26:34;;;;;;;8.60;7.13;;;;;;;;;;5072980;28;20215;-74
2023/05/23 11:29:01;;;;;;;10.87;9.77;;;;;;;;;;5090630;28;20186;-74
2023/05/23 11:31:26;;;;;;;9.90;7.67;;;;;;;;;;5073305;28;20169;-74
2023/05/23 11:33:52;;;;;;;9.00;8.10;;;;;;;;;;5072108;28;20176;-75
2023/05/23 11:36:17;;;;;;;11.70;8.83;;;;;;;;;;5072839;28;20195;-74
2023/05/23 11:38:42;;;;;;;7.97;7.27;;;;;;;;;;5089388;28;20243;-74
2023/05/23 11:41:07;;;;;;;8.07;7.33;;;;;;;;;;5090654;28;20184;-74
2023/05/23 11:43:32;;;;;;;8.63;7.03;;;;;;;;;;5072157;28;20232;-74
2023/05/23 11:46:06;;;;;;;7.47;6.87;;;;;;;;;;5073096;28;20197;-75
2023/05/23 11:48:31;;;;;;;7.93;7.03;;;;;;;;;;5088248;28;20254;-74
2023/05/23 11:50:56;;;;;;;7.30;6.70;;;;;;;;;;5073062;28;20219;-74
2023/05/23 11:53:23;;;;;;;7.13;6.47;;;;;;;;;;5083448;28;20181;-74
2023/05/23 11:55:49;;;;;;;6.07;5.57;;;;;;;;;;5066369;28;20263;-74
2023/05/23 11:58:14;;;;;;;7.27;6.57;;;;;;;;;;5072923;28;20171;-74
2023/05/23 12:00:46;;;;;;;6.27;5.77;;;;;;;;;;5068737;28;20177;-74
2023/05/23 12:03:11;;;;;;;6.93;6.13;;;;;;;;;;5083054;28;20203;-74
2023/05/23 12:05:36;;;;;;;8.43;6.20;;;;;;;;;;5072451;28;20313;-74
2023/05/23 12:08:02;;;;;;;6.10;5.43;;;;;;;;;;5071773;28;20169;-74
2023/05/23 12:10:28;;;;;;;6.23;5.63;;;;;;;;;;5072602;28;20275;-74
2023/05/23 12:12:54;;;;;;;6.87;6.27;;;;;;;;;;5089442;28;20253;-74
2023/05/23 12:15:23;;;;;;;6.50;5.87;;;;;;;;;;5072794;28;20176;-74
2023/05/23 12:17:49;;;;;;;6.87;6.23;;;;;;;;;;5072592;28;20176;-75
2023/05/23 12:20:14;;;;;;;6.60;6.00;;;;;;;;;;5072651;28;20165;-74
2023/05/23 12:22:40;;;;;;;6.70;5.93;;;;;;;;;;5089258;28;20218;-74
2023/05/23 12:25:11;;;;;;;8.07;5.50;;;;;;;;;;5069720;28;20180;-74
2023/05/23 12:27:39;;;;;;;7.03;6.07;;;;;;;;;;5092637;28;20212;-74
2023/05/23 12:30:12;;;;;;;6.10;5.60;;;;;;;;;;5067583;28;20198;-74
2023/05/23 12:32:41;;;;;;;6.07;5.53;;;;;;;;;;5060903;28;20189;-74
2023/05/23 12:35:08;;;;;;;5.93;5.43;;;;;;;;;;5074415;28;20181;-74
2023/05/23 12:37:34;;;;;;;6.10;5.50;;;;;;;;;;5074563;28;20229;-75
2023/05/23 12:40:28;;;;;;;4.87;4.47;;;;;;;;;;5097769;28;20188;-74
2023/05/23 12:42:54;;;;;;;4.80;4.37;;;;;;;;;;5058989;28;20192;-74
2023/05/23 12:45:40;;;;;;;5.03;4.47;;;;;;;;;;5093290;28;20191;-74
2023/05/23 12:48:08;;;;;;;5.67;5.17;;;;;;;;;;5083633;28;20198;-74
2023/05/23 12:50:34;;;;;;;5.63;5.13;;;;;;;;;;5076421;28;20224;-74
2023/05/23 12:52:59;;;;;;;8.73;6.03;;;;;;;;;;5090902;28;20209;-74
2023/05/23 12:55:24;;;;;;;5.50;5.00;;;;;;;;;;5092784;28;20172;-74
2023/05/23 12:57:50;;;;;;;5.77;5.13;;;;;;;;;;5076195;28;20210;-74
2023/05/23 13:00:15;;;;;;;5.30;4.80;;;;;;;;;;5092486;28;20169;-74
2023/05/23 13:02:40;;;;;;;5.77;5.27;;;;;;;;;;5083574;28;20190;-75
2023/05/23 13:05:06;;;;;;;5.47;4.97;;;;;;;;;;5087925;28;20178;-74
2023/05/23 13:07:32;;;;;;;5.27;4.87;;;;;;;;;;5072449;28;20197;-74
2023/05/23 13:09:57;;;;;;;5.73;5.23;;;;;;;;;;5075008;28;20176;-74
2023/05/23 13:12:22;;;;;;;5.80;5.30;;;;;;;;;;5074309;28;20267;-74
2023/05/23 13:14:48;;;;;;;6.17;5.03;;;;;;;;;;5089766;28;20232;-74
2023/05/23 13:17:13;;;;;;;5.43;4.93;;;;;;;;;;5072350;28;20183;-74
2023/05/23 13:19:38;;;;;;;4.27;3.97;;;;;;;;;;5074122;28;20260;-75
2023/05/23 13:22:04;;;;;;;5.40;4.90;;;;;;;;;;5091330;28;20179;-74
2023/05/23 13:24:30;;;;;;;5.20;4.80;;;;;;;;;;5075414;28;20198;-74
2023/05/23 13:26:55;;;;;;;4.97;4.57;;;;;;;;;;5073276;28;20201;-74
2023/05/23 13:29:20;;;;;;;5.17;4.37;;;;;;;;;;5075206;28;20177;-74
2023/05/23 13:31:46;;;;;;;4.47;4.07;;;;;;;;;;5070626;28;20316;-74
2023/05/23 13:34:12;;;;;;;5.13;4.40;;;;;;;;;;5090315;28;20199;-74
2023/05/23 13:36:37;;;;;;;5.10;4.60;;;;;;;;;;5070246;28;20180;-74
2023/05/23 13:39:02;;;;;;;5.30;4.80;;;;;;;;;;5071150;28;20239;-74
2023/05/23 13:41:27;;;;;;;4.70;4.40;;;;;;;;;;5074941;28;20241;-74
2023/05/23 13:43:53;;;;;;;5.93;4.97;;;;;;;;;;5072843;28;20188;-74
2023/05/23 13:46:18;;;;;;;8.03;5.83;;;;;;;;;;5071875;28;20205;-74
2023/05/23 13:48:43;;;;;;;9.37;5.43;;;;;;;;;;5073072;28;20173;-74
2023/05/23 13:51:08;;;;;;;4.60;4.13;;;;;;;;;;5074813;28;20179;-74
2023/05/23 13:53:33;;;;;;;5.20;4.80;;;;;;;;;;5092343;28;20180;-74
2023/05/23 13:55:59;;;;;;;6.73;5.30;;;;;;;;;;5064166;28;20189;-74
2023/05/23 13:58:24;;;;;;;5.27;4.80;;;;;;;;;;5070273;28;20181;-75
2023/05/23 14:00:49;;;;;;;4.57;4.17;;;;;;;;;;5087095;28;20187;-74
2023/05/23 14:03:15;;;;;;;5.63;5.13;;;;;;;;;;5089491;28;20195;-74
2023/05/23 14:05:40;;;;;;;6.80;4.80;;;;;;;;;;5090656;28;20178;-74
2023/05/23 14:08:05;;;;;;;5.10;4.70;;;;;;;;;;5083664;28;20179;-74
2023/05/23 14:10:32;;;;;;;5.20;4.70;;;;;;;;;;5077601;28;20167;-74
2023/05/23 14:12:57;;;;;;;8.97;5.20;;;;;;;;;;5067853;28;20172;-74
2023/05/23 14:15:22;;;;;;;5.83;5.33;;;;;;;;;;5087963;28;20172;-74